Time;durP1;ratioP1;P1;durP2;ratioP2;P2;SDS_P1;SDS_P2;PMS_P1;PMS_P2;Temp;Humidity;BMP_temperature;BMP_pressure;BME280_temperature;BME280_humidity;BME280_pressure;Samples;Min_cycle;Max_cycle;Signal;HPM_P1;HPM_P2
2022/12/11 00:06:54;;;;;;;7.63;2.33;;;;;;;;;;21172074;28;20051;-67
2022/12/11 00:16:57;;;;;;;4.95;1.20;;;;;;;;;;21171477;28;20507;-65
2022/12/11 00:26:59;;;;;;;8.90;1.50;;;;;;;;;;21172940;28;20400;-66
2022/12/11 00:37:02;;;;;;;5.50;1.00;;;;;;;;;;21171190;28;20051;-66
2022/12/11 00:47:04;;;;;;;5.05;1.10;;;;;;;;;;21170592;28;20075;-65
2022/12/11 00:57:06;;;;;;;5.25;1.13;;;;;;;;;;21169555;28;20067;-66
2022/12/11 01:07:08;;;;;;;5.30;1.45;;;;;;;;;;21168357;28;20090;-65
2022/12/11 01:17:10;;;;;;;6.72;1.65;;;;;;;;;;21168984;28;20044;-63
2022/12/11 01:27:12;;;;;;;8.90;2.45;;;;;;;;;;21167598;28;20043;-62
2022/12/11 01:37:15;;;;;;;7.05;1.52;;;;;;;;;;21166002;28;20051;-63
2022/12/11 01:47:17;;;;;;;5.93;1.67;;;;;;;;;;21169659;28;20044;-62
2022/12/11 01:57:19;;;;;;;9.45;2.05;;;;;;;;;;21164918;28;20055;-62
2022/12/11 02:07:21;;;;;;;8.18;1.38;;;;;;;;;;21164210;28;20075;-62
2022/12/11 02:17:37;;;;;;;5.72;1.35;;;;;;;;;;21164435;28;20050;-62
2022/12/11 02:27:55;;;;;;;4.07;1.15;;;;;;;;;;21163701;28;20081;-61
2022/12/11 02:38:04;;;;;;;6.30;1.23;;;;;;;;;;21162952;28;20055;-62
2022/12/11 02:48:06;;;;;;;5.47;1.20;;;;;;;;;;21163007;28;20186;-61
2022/12/11 02:58:12;;;;;;;4.20;1.13;;;;;;;;;;21162347;28;20495;-61
2022/12/11 03:08:17;;;;;;;6.93;1.35;;;;;;;;;;21162433;28;20428;-63
2022/12/11 03:18:29;;;;;;;4.68;1.15;;;;;;;;;;21161750;28;20134;-62
2022/12/11 03:28:48;;;;;;;4.68;1.10;;;;;;;;;;21161532;28;20446;-63
2022/12/11 03:38:58;;;;;;;4.90;0.73;;;;;;;;;;21173409;28;20059;-64
2022/12/11 03:49:05;;;;;;;6.15;0.90;;;;;;;;;;21175326;28;20039;-62
2022/12/11 03:59:08;;;;;;;3.35;0.80;;;;;;;;;;21173713;28;20062;-61
2022/12/11 04:09:11;;;;;;;3.78;0.80;;;;;;;;;;21174571;28;20450;-63
2022/12/11 04:29:38;;;;;;;4.57;1.20;;;;;;;;;;21171411;28;20043;-63
2022/12/11 04:39:40;;;;;;;5.28;1.20;;;;;;;;;;21170627;28;20134;-62
2022/12/11 04:49:43;;;;;;;6.80;1.17;;;;;;;;;;21170014;28;20039;-63
2022/12/11 04:59:46;;;;;;;2.65;1.10;;;;;;;;;;21170212;28;20086;-63
2022/12/11 05:09:49;;;;;;;5.05;1.65;;;;;;;;;;21171829;28;20103;-62
2022/12/11 05:19:53;;;;;;;6.25;1.70;;;;;;;;;;21169078;28;20086;-63
2022/12/11 05:29:57;;;;;;;4.85;1.40;;;;;;;;;;21167704;28;20047;-62
2022/12/11 05:40:00;;;;;;;6.72;1.38;;;;;;;;;;21147953;28;20047;-62
2022/12/11 05:50:03;;;;;;;5.10;1.83;;;;;;;;;;21166609;28;20047;-64
2022/12/11 06:00:08;;;;;;;6.95;2.80;;;;;;;;;;21146332;28;20559;-62
2022/12/11 06:10:11;;;;;;;6.93;3.00;;;;;;;;;;21164777;28;20043;-64
2022/12/11 06:20:17;;;;;;;4.13;2.28;;;;;;;;;;21164098;28;20058;-63
2022/12/11 06:30:23;;;;;;;3.67;1.98;;;;;;;;;;21146641;28;20047;-62
2022/12/11 06:40:31;;;;;;;5.32;2.13;;;;;;;;;;21164190;28;20448;-62
2022/12/11 06:50:34;;;;;;;3.65;2.05;;;;;;;;;;21164694;28;20043;-62
2022/12/11 07:00:37;;;;;;;4.25;1.63;;;;;;;;;;21163094;28;20541;-61
2022/12/11 07:10:40;;;;;;;3.90;1.20;;;;;;;;;;21172285;28;20040;-63
2022/12/11 07:20:43;;;;;;;4.20;1.60;;;;;;;;;;21177290;28;20043;-63
2022/12/11 07:30:46;;;;;;;2.47;1.60;;;;;;;;;;21176946;28;20130;-63
2022/12/11 07:40:49;;;;;;;4.25;1.80;;;;;;;;;;21174946;28;20051;-63
2022/12/11 07:50:52;;;;;;;3.30;1.40;;;;;;;;;;21175109;28;20055;-62
2022/12/11 08:00:54;;;;;;;2.13;0.98;;;;;;;;;;21173926;28;20495;-62
2022/12/11 08:11:04;;;;;;;3.20;1.60;;;;;;;;;;21173431;28;20407;-63
2022/12/11 08:21:07;;;;;;;;;;;;;;;;;;21172263;28;20058;-63
2022/12/11 08:31:10;;;;;;;4.05;1.55;;;;;;;;;;21171295;28;20006;-64
2022/12/11 08:41:17;;;;;;;2.42;1.05;;;;;;;;;;21171389;28;20134;-62
2022/12/11 08:51:23;;;;;;;3.03;1.40;;;;;;;;;;21170735;28;20040;-63
2022/12/11 09:01:26;;;;;;;1.58;0.98;;;;;;;;;;21245368;27;20142;-62
2022/12/11 09:11:30;;;;;;;1.00;0.55;;;;;;;;;;21253732;27;20142;-64
2022/12/11 09:21:32;;;;;;;1.42;1.00;;;;;;;;;;21253219;27;20092;-61
2022/12/11 09:31:35;;;;;;;1.85;0.57;;;;;;;;;;21252531;27;20107;-65
2022/12/11 09:41:39;;;;;;;0.70;0.40;;;;;;;;;;21208089;27;20532;-60
2022/12/11 09:51:54;;;;;;;1.55;0.32;;;;;;;;;;21269969;27;20134;-62
2022/12/11 10:02:22;;;;;;;1.52;0.55;;;;;;;;;;21272156;27;20403;-62
2022/12/11 10:12:28;;;;;;;1.48;0.60;;;;;;;;;;21271782;27;20068;-61
2022/12/11 10:22:32;;;;;;;1.77;0.70;;;;;;;;;;21311681;27;20058;-61
2022/12/11 10:32:40;;;;;;;1.52;0.93;;;;;;;;;;21238374;27;20040;-62
2022/12/11 10:42:51;;;;;;;1.08;0.52;;;;;;;;;;21246889;27;20550;-62
2022/12/11 10:52:53;;;;;;;1.58;0.47;;;;;;;;;;21306993;27;20555;-63
2022/12/11 11:02:55;;;;;;;0.80;0.55;;;;;;;;;;21260806;27;20058;-62
2022/12/11 11:13:01;;;;;;;0.75;0.40;;;;;;;;;;21261180;27;20053;-63
2022/12/11 11:23:11;;;;;;;1.17;0.60;;;;;;;;;;21328111;27;20042;-64
2022/12/11 11:33:18;;;;;;;1.80;0.80;;;;;;;;;;21295050;27;20054;-62
2022/12/11 11:43:40;;;;;;;0.85;0.65;;;;;;;;;;21261249;27;20093;-60
2022/12/11 11:53:46;;;;;;;0.93;0.73;;;;;;;;;;21268608;27;20058;-62
2022/12/11 12:03:49;;;;;;;2.42;1.00;;;;;;;;;;21271614;27;20406;-63
2022/12/11 12:14:01;;;;;;;12.30;6.28;;;;;;;;;;21263296;27;20054;-58
2022/12/11 12:24:06;;;;;;;3.38;1.70;;;;;;;;;;21237371;27;20062;-62
2022/12/11 12:34:08;;;;;;;1.08;0.88;;;;;;;;;;21251663;27;20442;-64
2022/12/11 12:44:24;;;;;;;1.75;1.00;;;;;;;;;;21238297;27;20545;-59
2022/12/11 12:54:26;;;;;;;3.60;1.60;;;;;;;;;;21250957;27;20047;-62
2022/12/11 13:04:38;;;;;;;3.22;2.05;;;;;;;;;;21311629;27;20054;-66
2022/12/11 13:14:40;;;;;;;4.28;2.10;;;;;;;;;;21264519;27;20058;-60
2022/12/11 13:25:03;;;;;;;2.88;2.22;;;;;;;;;;21262662;27;20073;-61
2022/12/11 13:35:13;;;;;;;14.35;3.28;;;;;;;;;;21226136;27;20530;-69
2022/12/11 13:45:28;;;;;;;1.90;1.60;;;;;;;;;;21334976;27;20180;-66
2022/12/11 13:55:34;;;;;;;2.50;2.00;;;;;;;;;;21334654;27;20055;-62
2022/12/11 14:05:36;;;;;;;4.40;2.58;;;;;;;;;;21335787;27;20042;-64
2022/12/11 14:15:43;;;;;;;9.35;5.65;;;;;;;;;;21333603;27;20046;-63
2022/12/11 14:25:59;;;;;;;4.28;3.00;;;;;;;;;;21332987;27;20131;-63
2022/12/11 14:36:02;;;;;;;3.45;3.00;;;;;;;;;;21332568;27;20065;-62
2022/12/11 14:46:07;;;;;;;4.68;3.50;;;;;;;;;;21334022;27;20470;-64
2022/12/11 14:56:20;;;;;;;3.45;2.75;;;;;;;;;;21333063;27;20055;-63
2022/12/11 15:06:24;;;;;;;5.70;3.38;;;;;;;;;;21332385;27;20129;-63
2022/12/11 15:16:30;;;;;;;4.80;3.50;;;;;;;;;;21331648;27;20438;-63
2022/12/11 15:26:37;;;;;;;7.22;4.28;;;;;;;;;;21333191;27;20047;-63
2022/12/11 15:36:40;;;;;;;7.55;5.35;;;;;;;;;;21345840;27;20489;-63
2022/12/11 15:46:42;;;;;;;5.93;5.00;;;;;;;;;;21344863;27;20053;-63
2022/12/11 15:56:46;;;;;;;8.38;4.50;;;;;;;;;;21346094;27;20050;-63
2022/12/11 16:06:48;;;;;;;7.93;5.40;;;;;;;;;;21345684;27;20049;-62
2022/12/11 16:16:50;;;;;;;8.75;5.63;;;;;;;;;;21344327;27;20046;-62
2022/12/11 16:26:52;;;;;;;6.13;4.95;;;;;;;;;;21344547;27;20123;-62
2022/12/11 16:36:57;;;;;;;6.43;4.65;;;;;;;;;;21342253;27;20050;-63
2022/12/11 16:46:59;;;;;;;6.32;4.45;;;;;;;;;;21341612;27;20049;-63
2022/12/11 16:57:01;;;;;;;7.20;4.90;;;;;;;;;;21339851;27;20141;-64
2022/12/11 17:07:04;;;;;;;6.47;4.63;;;;;;;;;;21339624;27;20042;-63
2022/12/11 17:17:06;;;;;;;5.32;4.35;;;;;;;;;;21339727;27;20043;-63
2022/12/11 17:27:08;;;;;;;22.35;14.77;;;;;;;;;;21337871;27;20046;-64
2022/12/11 17:37:10;;;;;;;5.68;4.13;;;;;;;;;;21336787;27;20053;-63
2022/12/11 17:47:12;;;;;;;6.03;3.90;;;;;;;;;;21337320;27;20050;-63
2022/12/11 17:57:15;;;;;;;6.90;4.05;;;;;;;;;;21334829;27;20047;-63
2022/12/11 18:07:18;;;;;;;6.30;4.57;;;;;;;;;;21316200;27;20046;-61
2022/12/11 18:17:20;;;;;;;5.35;2.40;;;;;;;;;;21333719;27;20051;-62
2022/12/11 18:27:23;;;;;;;4.43;2.63;;;;;;;;;;21334500;27;20046;-62
2022/12/11 18:37:25;;;;;;;3.67;2.53;;;;;;;;;;21333197;27;20078;-64
2022/12/11 18:47:28;;;;;;;3.58;1.70;;;;;;;;;;21333603;27;20047;-63
2022/12/11 18:57:31;;;;;;;2.45;2.03;;;;;;;;;;21333047;27;20088;-62
2022/12/11 19:07:33;;;;;;;4.20;2.30;;;;;;;;;;21344702;27;20054;-62
2022/12/11 19:17:36;;;;;;;1.48;1.02;;;;;;;;;;21348500;27;20390;-63
2022/12/11 19:27:38;;;;;;;2.22;1.10;;;;;;;;;;21348419;27;20078;-64
2022/12/11 19:37:40;;;;;;;1.88;1.10;;;;;;;;;;21346459;27;20072;-62
2022/12/11 19:47:43;;;;;;;2.38;1.50;;;;;;;;;;21346731;27;20501;-64
2022/12/11 19:57:45;;;;;;;4.90;2.33;;;;;;;;;;21346007;27;20051;-63
2022/12/11 20:07:47;;;;;;;1.92;1.33;;;;;;;;;;21345817;27;20053;-64
2022/12/11 20:17:53;;;;;;;5.85;3.17;;;;;;;;;;21342813;27;20054;-64
2022/12/11 20:27:55;;;;;;;3.58;1.85;;;;;;;;;;21342750;27;20047;-64
2022/12/11 20:37:57;;;;;;;3.22;2.05;;;;;;;;;;21341391;27;20051;-62
2022/12/11 20:47:59;;;;;;;3.05;1.65;;;;;;;;;;21342871;27;20401;-65
2022/12/11 20:58:02;;;;;;;2.97;1.58;;;;;;;;;;21341863;27;20074;-64
2022/12/11 21:08:04;;;;;;;15.20;7.35;;;;;;;;;;21341595;27;20070;-62
2022/12/11 21:18:06;;;;;;;4.47;2.33;;;;;;;;;;21339956;27;20103;-63
2022/12/11 21:28:09;;;;;;;3.63;2.30;;;;;;;;;;21337617;27;20049;-63
2022/12/11 21:38:12;;;;;;;5.15;2.90;;;;;;;;;;21337878;27;20046;-64
2022/12/11 21:48:16;;;;;;;7.00;2.90;;;;;;;;;;21337098;27;20055;-64
2022/12/11 21:58:21;;;;;;;6.75;3.42;;;;;;;;;;21335337;27;20107;-64
2022/12/11 22:08:24;;;;;;;6.32;2.92;;;;;;;;;;21335738;27;20471;-63
2022/12/11 22:18:27;;;;;;;3.50;2.05;;;;;;;;;;21335145;27;20064;-65
2022/12/11 22:28:30;;;;;;;2.83;1.50;;;;;;;;;;21334297;27;20047;-65
2022/12/11 22:38:33;;;;;;;3.40;2.00;;;;;;;;;;21340534;27;20054;-63
2022/12/11 22:48:35;;;;;;;3.38;1.67;;;;;;;;;;21351874;27;20046;-62
2022/12/11 22:58:38;;;;;;;2.75;1.60;;;;;;;;;;21351048;27;20047;-64
2022/12/11 23:08:41;;;;;;;5.38;2.10;;;;;;;;;;21351101;27;20039;-64
2022/12/11 23:18:44;;;;;;;5.78;1.83;;;;;;;;;;21351252;27;20057;-63
2022/12/11 23:28:46;;;;;;;5.70;2.00;;;;;;;;;;21349367;27;20085;-63
2022/12/11 23:38:51;;;;;;;2.70;1.80;;;;;;;;;;21348409;27;20402;-63
2022/12/11 23:48:53;;;;;;;3.65;1.70;;;;;;;;;;21347276;27;20070;-63
2022/12/11 23:58:57;;;;;;;2.78;1.80;;;;;;;;;;21345428;27;20050;-63
